sensor_id;sensor_type;location;lat;lon;timestamp;P1;durP1;ratioP1;P2;durP2;ratioP2
13487;SDS011;6816;48.506;9.050;2023-06-19T00:02:25;5.25;;;4.75;;
13487;SDS011;6816;48.506;9.050;2023-06-19T00:05:26;5.50;;;5.10;;
13487;SDS011;6816;48.506;9.050;2023-06-19T00:08:26;5.28;;;4.80;;
13487;SDS011;6816;48.506;9.050;2023-06-19T00:11:27;5.47;;;5.07;;
13487;SDS011;6816;48.506;9.050;2023-06-19T00:14:27;5.13;;;4.63;;
13487;SDS011;6816;48.506;9.050;2023-06-19T00:17:28;5.30;;;4.90;;
13487;SDS011;6816;48.506;9.050;2023-06-19T00:20:29;5.28;;;4.82;;
13487;SDS011;6816;48.506;9.050;2023-06-19T00:23:29;5.10;;;4.70;;
13487;SDS011;6816;48.506;9.050;2023-06-19T00:26:30;5.60;;;5.20;;
13487;SDS011;6816;48.506;9.050;2023-06-19T00:29:31;7.40;;;4.97;;
13487;SDS011;6816;48.506;9.050;2023-06-19T00:32:32;5.05;;;4.53;;
13487;SDS011;6816;48.506;9.050;2023-06-19T00:35:46;4.65;;;4.25;;
13487;SDS011;6816;48.506;9.050;2023-06-19T00:38:47;4.95;;;4.55;;
13487;SDS011;6816;48.506;9.050;2023-06-19T00:41:49;5.57;;;5.13;;
13487;SDS011;6816;48.506;9.050;2023-06-19T00:44:52;5.22;;;4.82;;
13487;SDS011;6816;48.506;9.050;2023-06-19T00:47:53;5.28;;;4.82;;
13487;SDS011;6816;48.506;9.050;2023-06-19T00:50:54;5.00;;;4.60;;
13487;SDS011;6816;48.506;9.050;2023-06-19T00:53:56;5.35;;;4.85;;
13487;SDS011;6816;48.506;9.050;2023-06-19T00:56:57;5.50;;;5.00;;
13487;SDS011;6816;48.506;9.050;2023-06-19T00:59:58;5.20;;;4.80;;
13487;SDS011;6816;48.506;9.050;2023-06-19T01:02:58;5.97;;;5.53;;
13487;SDS011;6816;48.506;9.050;2023-06-19T01:05:59;5.20;;;4.80;;
13487;SDS011;6816;48.506;9.050;2023-06-19T01:09:02;5.55;;;5.10;;
13487;SDS011;6816;48.506;9.050;2023-06-19T01:12:11;5.57;;;5.13;;
13487;SDS011;6816;48.506;9.050;2023-06-19T01:15:16;5.60;;;5.10;;
13487;SDS011;6816;48.506;9.050;2023-06-19T01:18:18;5.60;;;5.20;;
13487;SDS011;6816;48.506;9.050;2023-06-19T01:21:20;5.10;;;4.60;;
13487;SDS011;6816;48.506;9.050;2023-06-19T01:24:20;7.68;;;4.95;;
13487;SDS011;6816;48.506;9.050;2023-06-19T01:27:21;5.85;;;5.28;;
13487;SDS011;6816;48.506;9.050;2023-06-19T01:30:25;5.75;;;5.32;;
13487;SDS011;6816;48.506;9.050;2023-06-19T01:33:26;5.75;;;5.25;;
13487;SDS011;6816;48.506;9.050;2023-06-19T01:36:28;6.10;;;5.60;;
13487;SDS011;6816;48.506;9.050;2023-06-19T01:39:31;5.53;;;5.00;;
13487;SDS011;6816;48.506;9.050;2023-06-19T01:42:33;5.55;;;5.05;;
13487;SDS011;6816;48.506;9.050;2023-06-19T01:45:35;5.72;;;5.32;;
13487;SDS011;6816;48.506;9.050;2023-06-19T01:48:37;5.18;;;4.78;;
13487;SDS011;6816;48.506;9.050;2023-06-19T01:51:38;5.57;;;5.07;;
13487;SDS011;6816;48.506;9.050;2023-06-19T01:54:39;6.45;;;5.85;;
13487;SDS011;6816;48.506;9.050;2023-06-19T01:57:40;5.55;;;5.05;;
13487;SDS011;6816;48.506;9.050;2023-06-19T02:00:40;5.80;;;5.35;;
13487;SDS011;6816;48.506;9.050;2023-06-19T02:03:41;5.40;;;5.00;;
13487;SDS011;6816;48.506;9.050;2023-06-19T02:06:42;5.40;;;5.00;;
13487;SDS011;6816;48.506;9.050;2023-06-19T02:09:42;5.22;;;4.72;;
13487;SDS011;6816;48.506;9.050;2023-06-19T02:12:43;5.10;;;4.60;;
13487;SDS011;6816;48.506;9.050;2023-06-19T02:15:43;5.50;;;5.00;;
13487;SDS011;6816;48.506;9.050;2023-06-19T02:18:44;6.15;;;5.40;;
13487;SDS011;6816;48.506;9.050;2023-06-19T02:21:44;4.97;;;4.57;;
13487;SDS011;6816;48.506;9.050;2023-06-19T02:24:45;4.75;;;4.35;;
13487;SDS011;6816;48.506;9.050;2023-06-19T02:27:46;4.88;;;4.47;;
13487;SDS011;6816;48.506;9.050;2023-06-19T02:30:47;4.55;;;4.15;;
13487;SDS011;6816;48.506;9.050;2023-06-19T02:33:48;4.63;;;4.28;;
13487;SDS011;6816;48.506;9.050;2023-06-19T02:36:50;4.43;;;4.03;;
13487;SDS011;6816;48.506;9.050;2023-06-19T02:39:50;3.90;;;3.65;;
13487;SDS011;6816;48.506;9.050;2023-06-19T02:42:51;4.40;;;4.10;;
13487;SDS011;6816;48.506;9.050;2023-06-19T02:45:51;5.57;;;4.40;;
13487;SDS011;6816;48.506;9.050;2023-06-19T02:48:52;4.80;;;4.40;;
13487;SDS011;6816;48.506;9.050;2023-06-19T02:51:53;4.40;;;4.10;;
13487;SDS011;6816;48.506;9.050;2023-06-19T02:54:53;5.25;;;4.78;;
13487;SDS011;6816;48.506;9.050;2023-06-19T02:57:54;4.85;;;4.10;;
13487;SDS011;6816;48.506;9.050;2023-06-19T03:00:55;4.68;;;4.32;;
13487;SDS011;6816;48.506;9.050;2023-06-19T03:03:55;4.68;;;4.30;;
13487;SDS011;6816;48.506;9.050;2023-06-19T03:06:56;4.50;;;4.10;;
13487;SDS011;6816;48.506;9.050;2023-06-19T03:09:57;4.85;;;4.45;;
13487;SDS011;6816;48.506;9.050;2023-06-19T03:12:57;4.68;;;4.28;;
13487;SDS011;6816;48.506;9.050;2023-06-19T03:15:58;6.03;;;4.45;;
13487;SDS011;6816;48.506;9.050;2023-06-19T03:18:59;4.28;;;3.97;;
13487;SDS011;6816;48.506;9.050;2023-06-19T03:22:00;4.57;;;4.15;;
13487;SDS011;6816;48.506;9.050;2023-06-19T03:25:00;4.82;;;4.43;;
13487;SDS011;6816;48.506;9.050;2023-06-19T03:28:01;4.57;;;4.28;;
13487;SDS011;6816;48.506;9.050;2023-06-19T03:31:02;4.40;;;4.10;;
13487;SDS011;6816;48.506;9.050;2023-06-19T03:34:03;4.40;;;4.10;;
13487;SDS011;6816;48.506;9.050;2023-06-19T03:37:04;4.43;;;4.07;;
13487;SDS011;6816;48.506;9.050;2023-06-19T03:40:05;4.57;;;4.18;;
13487;SDS011;6816;48.506;9.050;2023-06-19T03:43:06;4.78;;;4.30;;
13487;SDS011;6816;48.506;9.050;2023-06-19T03:46:06;4.55;;;4.15;;
13487;SDS011;6816;48.506;9.050;2023-06-19T03:49:07;4.15;;;3.38;;
13487;SDS011;6816;48.506;9.050;2023-06-19T03:52:09;3.17;;;2.95;;
13487;SDS011;6816;48.506;9.050;2023-06-19T03:55:10;3.45;;;3.25;;
13487;SDS011;6816;48.506;9.050;2023-06-19T03:58:10;3.10;;;2.88;;
13487;SDS011;6816;48.506;9.050;2023-06-19T04:01:11;3.40;;;3.10;;
13487;SDS011;6816;48.506;9.050;2023-06-19T04:04:12;3.30;;;3.00;;
13487;SDS011;6816;48.506;9.050;2023-06-19T04:07:12;3.20;;;2.90;;
13487;SDS011;6816;48.506;9.050;2023-06-19T04:10:13;3.10;;;2.90;;
13487;SDS011;6816;48.506;9.050;2023-06-19T04:13:14;3.33;;;3.13;;
13487;SDS011;6816;48.506;9.050;2023-06-19T04:16:16;3.75;;;3.38;;
13487;SDS011;6816;48.506;9.050;2023-06-19T04:19:16;3.08;;;2.88;;
13487;SDS011;6816;48.506;9.050;2023-06-19T04:22:17;4.00;;;3.60;;
13487;SDS011;6816;48.506;9.050;2023-06-19T04:25:17;3.63;;;3.20;;
13487;SDS011;6816;48.506;9.050;2023-06-19T04:28:18;3.75;;;3.45;;
13487;SDS011;6816;48.506;9.050;2023-06-19T04:31:19;3.60;;;3.30;;
13487;SDS011;6816;48.506;9.050;2023-06-19T04:34:19;3.92;;;3.58;;
13487;SDS011;6816;48.506;9.050;2023-06-19T04:37:20;3.67;;;3.38;;
13487;SDS011;6816;48.506;9.050;2023-06-19T04:40:21;3.50;;;3.20;;
13487;SDS011;6816;48.506;9.050;2023-06-19T04:43:22;3.50;;;3.22;;
13487;SDS011;6816;48.506;9.050;2023-06-19T04:46:24;2.95;;;2.75;;
13487;SDS011;6816;48.506;9.050;2023-06-19T04:49:25;3.17;;;2.97;;
13487;SDS011;6816;48.506;9.050;2023-06-19T04:52:25;3.15;;;2.85;;
13487;SDS011;6816;48.506;9.050;2023-06-19T04:55:26;2.95;;;2.75;;
13487;SDS011;6816;48.506;9.050;2023-06-19T04:58:27;3.10;;;2.90;;
13487;SDS011;6816;48.506;9.050;2023-06-19T05:01:28;3.20;;;2.90;;
13487;SDS011;6816;48.506;9.050;2023-06-19T05:04:29;2.72;;;2.53;;
13487;SDS011;6816;48.506;9.050;2023-06-19T05:07:32;3.35;;;3.08;;
13487;SDS011;6816;48.506;9.050;2023-06-19T05:10:33;2.65;;;2.47;;
13487;SDS011;6816;48.506;9.050;2023-06-19T05:13:33;3.03;;;2.83;;
13487;SDS011;6816;48.506;9.050;2023-06-19T05:16:34;3.00;;;2.80;;
13487;SDS011;6816;48.506;9.050;2023-06-19T05:19:35;2.63;;;2.42;;
13487;SDS011;6816;48.506;9.050;2023-06-19T05:22:36;3.33;;;3.13;;
13487;SDS011;6816;48.506;9.050;2023-06-19T05:25:37;2.63;;;2.42;;
13487;SDS011;6816;48.506;9.050;2023-06-19T05:28:37;3.10;;;2.90;;
13487;SDS011;6816;48.506;9.050;2023-06-19T05:31:38;2.95;;;2.75;;
13487;SDS011;6816;48.506;9.050;2023-06-19T05:34:38;3.53;;;2.90;;
13487;SDS011;6816;48.506;9.050;2023-06-19T05:37:39;3.08;;;2.78;;
13487;SDS011;6816;48.506;9.050;2023-06-19T05:40:43;3.50;;;3.20;;
13487;SDS011;6816;48.506;9.050;2023-06-19T05:43:43;3.45;;;2.88;;
13487;SDS011;6816;48.506;9.050;2023-06-19T05:46:44;2.60;;;2.40;;
13487;SDS011;6816;48.506;9.050;2023-06-19T05:49:45;3.03;;;2.83;;
13487;SDS011;6816;48.506;9.050;2023-06-19T05:52:46;2.97;;;2.70;;
13487;SDS011;6816;48.506;9.050;2023-06-19T05:55:47;3.17;;;2.88;;
13487;SDS011;6816;48.506;9.050;2023-06-19T05:58:48;2.50;;;2.40;;
13487;SDS011;6816;48.506;9.050;2023-06-19T06:01:49;3.00;;;2.80;;
13487;SDS011;6816;48.506;9.050;2023-06-19T06:04:50;3.00;;;2.70;;
13487;SDS011;6816;48.506;9.050;2023-06-19T06:07:51;4.63;;;2.47;;
13487;SDS011;6816;48.506;9.050;2023-06-19T06:10:52;2.63;;;2.42;;
13487;SDS011;6816;48.506;9.050;2023-06-19T06:13:53;3.58;;;2.40;;
13487;SDS011;6816;48.506;9.050;2023-06-19T06:16:53;2.92;;;2.65;;
13487;SDS011;6816;48.506;9.050;2023-06-19T06:19:54;2.90;;;2.67;;
13487;SDS011;6816;48.506;9.050;2023-06-19T06:22:54;2.53;;;2.33;;
13487;SDS011;6816;48.506;9.050;2023-06-19T06:25:55;2.70;;;2.50;;
13487;SDS011;6816;48.506;9.050;2023-06-19T06:29:01;2.60;;;2.40;;
13487;SDS011;6816;48.506;9.050;2023-06-19T06:32:05;3.05;;;2.80;;
13487;SDS011;6816;48.506;9.050;2023-06-19T06:35:07;2.85;;;2.55;;
13487;SDS011;6816;48.506;9.050;2023-06-19T06:38:08;2.40;;;2.20;;
13487;SDS011;6816;48.506;9.050;2023-06-19T06:41:08;2.75;;;2.55;;
13487;SDS011;6816;48.506;9.050;2023-06-19T06:44:09;3.25;;;2.90;;
13487;SDS011;6816;48.506;9.050;2023-06-19T06:47:11;2.90;;;2.70;;
13487;SDS011;6816;48.506;9.050;2023-06-19T06:50:11;2.60;;;2.40;;
13487;SDS011;6816;48.506;9.050;2023-06-19T06:53:12;5.55;;;2.85;;
13487;SDS011;6816;48.506;9.050;2023-06-19T06:56:13;3.28;;;2.97;;
13487;SDS011;6816;48.506;9.050;2023-06-19T06:59:13;3.13;;;2.83;;
13487;SDS011;6816;48.506;9.050;2023-06-19T07:02:15;3.58;;;3.28;;
13487;SDS011;6816;48.506;9.050;2023-06-19T07:05:16;3.63;;;2.80;;
13487;SDS011;6816;48.506;9.050;2023-06-19T07:08:17;3.22;;;2.90;;
13487;SDS011;6816;48.506;9.050;2023-06-19T07:11:17;3.20;;;2.90;;
13487;SDS011;6816;48.506;9.050;2023-06-19T07:14:18;2.92;;;2.72;;
13487;SDS011;6816;48.506;9.050;2023-06-19T07:17:19;3.97;;;2.60;;
13487;SDS011;6816;48.506;9.050;2023-06-19T07:20:19;2.20;;;2.10;;
13487;SDS011;6816;48.506;9.050;2023-06-19T07:23:20;2.40;;;2.20;;
13487;SDS011;6816;48.506;9.050;2023-06-19T07:26:21;2.30;;;2.10;;
13487;SDS011;6816;48.506;9.050;2023-06-19T07:29:22;2.78;;;2.00;;
13487;SDS011;6816;48.506;9.050;2023-06-19T07:32:22;2.92;;;2.05;;
13487;SDS011;6816;48.506;9.050;2023-06-19T07:35:23;2.20;;;2.03;;
13487;SDS011;6816;48.506;9.050;2023-06-19T07:38:24;2.50;;;2.33;;
13487;SDS011;6816;48.506;9.050;2023-06-19T07:41:24;2.60;;;2.40;;
13487;SDS011;6816;48.506;9.050;2023-06-19T07:44:25;3.30;;;2.55;;
13487;SDS011;6816;48.506;9.050;2023-06-19T07:47:26;2.42;;;2.22;;
13487;SDS011;6816;48.506;9.050;2023-06-19T07:50:27;2.65;;;2.42;;
13487;SDS011;6816;48.506;9.050;2023-06-19T07:53:27;2.60;;;2.40;;
13487;SDS011;6816;48.506;9.050;2023-06-19T07:56:28;2.40;;;2.30;;
13487;SDS011;6816;48.506;9.050;2023-06-19T07:59:28;4.70;;;2.40;;
13487;SDS011;6816;48.506;9.050;2023-06-19T08:02:29;2.80;;;2.60;;
13487;SDS011;6816;48.506;9.050;2023-06-19T08:05:30;2.60;;;2.40;;
13487;SDS011;6816;48.506;9.050;2023-06-19T08:08:30;2.50;;;2.40;;
13487;SDS011;6816;48.506;9.050;2023-06-19T08:11:31;2.70;;;2.50;;
13487;SDS011;6816;48.506;9.050;2023-06-19T08:14:32;2.47;;;2.28;;
13487;SDS011;6816;48.506;9.050;2023-06-19T08:17:32;2.90;;;2.70;;
13487;SDS011;6816;48.506;9.050;2023-06-19T08:20:33;2.67;;;2.47;;
13487;SDS011;6816;48.506;9.050;2023-06-19T08:23:33;2.47;;;2.28;;
13487;SDS011;6816;48.506;9.050;2023-06-19T08:26:34;2.67;;;2.42;;
13487;SDS011;6816;48.506;9.050;2023-06-19T08:29:35;2.70;;;2.50;;
13487;SDS011;6816;48.506;9.050;2023-06-19T08:32:35;2.58;;;2.38;;
13487;SDS011;6816;48.506;9.050;2023-06-19T08:35:36;2.20;;;2.10;;
13487;SDS011;6816;48.506;9.050;2023-06-19T08:38:37;2.42;;;2.22;;
13487;SDS011;6816;48.506;9.050;2023-06-19T08:41:37;2.20;;;2.00;;
13487;SDS011;6816;48.506;9.050;2023-06-19T08:44:39;2.65;;;2.47;;
13487;SDS011;6816;48.506;9.050;2023-06-19T08:47:39;2.13;;;2.03;;
13487;SDS011;6816;48.506;9.050;2023-06-19T08:50:40;2.78;;;2.22;;
13487;SDS011;6816;48.506;9.050;2023-06-19T08:54:23;2.10;;;2.00;;
13487;SDS011;6816;48.506;9.050;2023-06-19T08:57:05;2.75;;;2.13;;
13487;SDS011;6816;48.506;9.050;2023-06-19T09:00:06;2.70;;;2.22;;
13487;SDS011;6816;48.506;9.050;2023-06-19T09:03:10;2.20;;;2.10;;
13487;SDS011;6816;48.506;9.050;2023-06-19T09:06:10;2.30;;;2.10;;
13487;SDS011;6816;48.506;9.050;2023-06-19T09:09:11;1.90;;;1.80;;
13487;SDS011;6816;48.506;9.050;2023-06-19T09:12:13;2.05;;;1.95;;
13487;SDS011;6816;48.506;9.050;2023-06-19T09:15:15;1.70;;;1.60;;
13487;SDS011;6816;48.506;9.050;2023-06-19T09:18:15;1.60;;;1.50;;
13487;SDS011;6816;48.506;9.050;2023-06-19T09:21:20;1.50;;;1.40;;
13487;SDS011;6816;48.506;9.050;2023-06-19T09:24:32;2.53;;;1.55;;
13487;SDS011;6816;48.506;9.050;2023-06-19T09:27:37;1.70;;;1.60;;
13487;SDS011;6816;48.506;9.050;2023-06-19T09:30:38;1.77;;;1.67;;
13487;SDS011;6816;48.506;9.050;2023-06-19T09:33:39;1.52;;;1.42;;
13487;SDS011;6816;48.506;9.050;2023-06-19T09:36:40;1.92;;;1.83;;
13487;SDS011;6816;48.506;9.050;2023-06-19T09:39:41;2.00;;;1.90;;
13487;SDS011;6816;48.506;9.050;2023-06-19T09:42:42;1.55;;;1.45;;
13487;SDS011;6816;48.506;9.050;2023-06-19T09:45:44;1.92;;;1.83;;
13487;SDS011;6816;48.506;9.050;2023-06-19T09:48:50;3.33;;;1.80;;
13487;SDS011;6816;48.506;9.050;2023-06-19T09:51:54;1.92;;;1.83;;
13487;SDS011;6816;48.506;9.050;2023-06-19T09:54:55;2.08;;;1.63;;
13487;SDS011;6816;48.506;9.050;2023-06-19T09:57:57;1.83;;;1.73;;
13487;SDS011;6816;48.506;9.050;2023-06-19T10:00:59;2.53;;;1.92;;
13487;SDS011;6816;48.506;9.050;2023-06-19T10:04:02;1.70;;;1.60;;
13487;SDS011;6816;48.506;9.050;2023-06-19T10:07:14;2.00;;;1.90;;
13487;SDS011;6816;48.506;9.050;2023-06-19T10:10:25;2.75;;;2.00;;
13487;SDS011;6816;48.506;9.050;2023-06-19T10:13:33;1.90;;;1.80;;
13487;SDS011;6816;48.506;9.050;2023-06-19T10:16:36;2.17;;;2.08;;
13487;SDS011;6816;48.506;9.050;2023-06-19T10:19:37;2.00;;;1.90;;
13487;SDS011;6816;48.506;9.050;2023-06-19T10:22:37;2.30;;;2.17;;
13487;SDS011;6816;48.506;9.050;2023-06-19T10:25:38;2.08;;;1.98;;
13487;SDS011;6816;48.506;9.050;2023-06-19T10:28:45;2.33;;;2.13;;
13487;SDS011;6816;48.506;9.050;2023-06-19T10:31:47;2.65;;;2.05;;
13487;SDS011;6816;48.506;9.050;2023-06-19T10:34:48;2.53;;;2.38;;
13487;SDS011;6816;48.506;9.050;2023-06-19T10:37:49;2.03;;;1.92;;
13487;SDS011;6816;48.506;9.050;2023-06-19T10:40:50;2.13;;;2.03;;
13487;SDS011;6816;48.506;9.050;2023-06-19T10:46:59;2.22;;;2.13;;
13487;SDS011;6816;48.506;9.050;2023-06-19T10:50:00;2.53;;;2.20;;
13487;SDS011;6816;48.506;9.050;2023-06-19T10:53:01;2.38;;;2.20;;
13487;SDS011;6816;48.506;9.050;2023-06-19T10:56:01;2.40;;;2.20;;
13487;SDS011;6816;48.506;9.050;2023-06-19T10:59:03;2.20;;;2.00;;
13487;SDS011;6816;48.506;9.050;2023-06-19T11:02:09;2.25;;;2.05;;
13487;SDS011;6816;48.506;9.050;2023-06-19T11:05:10;1.83;;;1.73;;
13487;SDS011;6816;48.506;9.050;2023-06-19T11:08:16;2.40;;;2.20;;
13487;SDS011;6816;48.506;9.050;2023-06-19T11:11:19;2.42;;;1.90;;
13487;SDS011;6816;48.506;9.050;2023-06-19T11:14:20;1.67;;;1.58;;
13487;SDS011;6816;48.506;9.050;2023-06-19T11:17:21;1.80;;;1.70;;
13487;SDS011;6816;48.506;9.050;2023-06-19T11:20:23;3.38;;;1.70;;
13487;SDS011;6816;48.506;9.050;2023-06-19T11:23:25;1.98;;;1.88;;
13487;SDS011;6816;48.506;9.050;2023-06-19T11:26:27;1.83;;;1.67;;
13487;SDS011;6816;48.506;9.050;2023-06-19T11:29:31;1.85;;;1.75;;
13487;SDS011;6816;48.506;9.050;2023-06-19T11:32:34;1.42;;;1.38;;
13487;SDS011;6816;48.506;9.050;2023-06-19T11:35:40;1.70;;;1.60;;
13487;SDS011;6816;48.506;9.050;2023-06-19T11:38:46;1.70;;;1.60;;
13487;SDS011;6816;48.506;9.050;2023-06-19T11:41:47;1.80;;;1.70;;
13487;SDS011;6816;48.506;9.050;2023-06-19T11:45:01;1.80;;;1.70;;
13487;SDS011;6816;48.506;9.050;2023-06-19T11:48:05;1.75;;;1.65;;
13487;SDS011;6816;48.506;9.050;2023-06-19T11:51:06;2.00;;;1.90;;
13487;SDS011;6816;48.506;9.050;2023-06-19T11:54:10;1.80;;;1.70;;
13487;SDS011;6816;48.506;9.050;2023-06-19T11:57:12;1.70;;;1.60;;
13487;SDS011;6816;48.506;9.050;2023-06-19T12:00:14;1.75;;;1.65;;
13487;SDS011;6816;48.506;9.050;2023-06-19T12:03:15;2.03;;;1.92;;
13487;SDS011;6816;48.506;9.050;2023-06-19T12:06:16;3.28;;;1.85;;
13487;SDS011;6816;48.506;9.050;2023-06-19T12:09:18;2.05;;;1.95;;
13487;SDS011;6816;48.506;9.050;2023-06-19T12:12:18;1.80;;;1.70;;
13487;SDS011;6816;48.506;9.050;2023-06-19T12:15:19;2.17;;;1.75;;
13487;SDS011;6816;48.506;9.050;2023-06-19T12:18:19;1.90;;;1.80;;
13487;SDS011;6816;48.506;9.050;2023-06-19T12:21:20;1.88;;;1.70;;
13487;SDS011;6816;48.506;9.050;2023-06-19T12:24:21;2.22;;;2.08;;
13487;SDS011;6816;48.506;9.050;2023-06-19T12:27:21;2.22;;;2.10;;
13487;SDS011;6816;48.506;9.050;2023-06-19T12:30:22;2.22;;;2.00;;
13487;SDS011;6816;48.506;9.050;2023-06-19T12:33:23;2.10;;;2.00;;
13487;SDS011;6816;48.506;9.050;2023-06-19T12:36:24;2.08;;;1.98;;
13487;SDS011;6816;48.506;9.050;2023-06-19T12:39:25;2.20;;;2.10;;
13487;SDS011;6816;48.506;9.050;2023-06-19T12:42:26;2.13;;;2.03;;
13487;SDS011;6816;48.506;9.050;2023-06-19T12:45:27;2.30;;;2.20;;
13487;SDS011;6816;48.506;9.050;2023-06-19T12:48:27;2.22;;;2.05;;
13487;SDS011;6816;48.506;9.050;2023-06-19T12:51:28;1.92;;;1.83;;
13487;SDS011;6816;48.506;9.050;2023-06-19T12:54:30;2.38;;;2.28;;
13487;SDS011;6816;48.506;9.050;2023-06-19T12:57:31;2.10;;;2.00;;
13487;SDS011;6816;48.506;9.050;2023-06-19T13:00:32;2.40;;;2.20;;
13487;SDS011;6816;48.506;9.050;2023-06-19T13:03:33;3.38;;;2.22;;
13487;SDS011;6816;48.506;9.050;2023-06-19T13:06:34;2.38;;;2.17;;
13487;SDS011;6816;48.506;9.050;2023-06-19T13:09:36;2.42;;;2.22;;
13487;SDS011;6816;48.506;9.050;2023-06-19T13:12:36;2.30;;;2.20;;
13487;SDS011;6816;48.506;9.050;2023-06-19T13:15:37;2.55;;;2.40;;
13487;SDS011;6816;48.506;9.050;2023-06-19T13:18:38;2.47;;;2.28;;
13487;SDS011;6816;48.506;9.050;2023-06-19T13:21:38;2.33;;;2.22;;
13487;SDS011;6816;48.506;9.050;2023-06-19T13:24:40;2.53;;;2.33;;
13487;SDS011;6816;48.506;9.050;2023-06-19T13:27:40;2.55;;;2.35;;
13487;SDS011;6816;48.506;9.050;2023-06-19T13:30:41;2.60;;;2.40;;
13487;SDS011;6816;48.506;9.050;2023-06-19T13:33:42;2.67;;;2.47;;
13487;SDS011;6816;48.506;9.050;2023-06-19T13:36:42;2.58;;;2.40;;
13487;SDS011;6816;48.506;9.050;2023-06-19T13:39:43;2.80;;;2.58;;
13487;SDS011;6816;48.506;9.050;2023-06-19T13:42:44;2.42;;;2.33;;
13487;SDS011;6816;48.506;9.050;2023-06-19T13:45:44;2.38;;;2.28;;
13487;SDS011;6816;48.506;9.050;2023-06-19T13:48:45;2.90;;;2.70;;
13487;SDS011;6816;48.506;9.050;2023-06-19T13:51:50;2.47;;;2.38;;
13487;SDS011;6816;48.506;9.050;2023-06-19T13:54:51;2.78;;;2.53;;
13487;SDS011;6816;48.506;9.050;2023-06-19T13:57:51;2.90;;;2.70;;
13487;SDS011;6816;48.506;9.050;2023-06-19T14:00:52;2.55;;;2.35;;
13487;SDS011;6816;48.506;9.050;2023-06-19T14:03:53;2.83;;;2.63;;
13487;SDS011;6816;48.506;9.050;2023-06-19T14:06:53;2.80;;;2.60;;
13487;SDS011;6816;48.506;9.050;2023-06-19T14:09:54;2.75;;;2.55;;
13487;SDS011;6816;48.506;9.050;2023-06-19T14:12:55;2.53;;;2.33;;
13487;SDS011;6816;48.506;9.050;2023-06-19T14:15:56;2.83;;;2.60;;
13487;SDS011;6816;48.506;9.050;2023-06-19T14:18:57;2.75;;;2.60;;
13487;SDS011;6816;48.506;9.050;2023-06-19T14:21:57;2.78;;;2.58;;
13487;SDS011;6816;48.506;9.050;2023-06-19T14:24:58;2.67;;;2.47;;
13487;SDS011;6816;48.506;9.050;2023-06-19T14:28:01;3.03;;;2.83;;
13487;SDS011;6816;48.506;9.050;2023-06-19T14:31:02;2.88;;;2.67;;
13487;SDS011;6816;48.506;9.050;2023-06-19T14:34:03;2.80;;;2.60;;
13487;SDS011;6816;48.506;9.050;2023-06-19T14:37:03;2.45;;;2.35;;
13487;SDS011;6816;48.506;9.050;2023-06-19T14:40:04;3.20;;;2.92;;
13487;SDS011;6816;48.506;9.050;2023-06-19T14:43:06;2.92;;;2.72;;
13487;SDS011;6816;48.506;9.050;2023-06-19T14:46:08;2.78;;;2.63;;
13487;SDS011;6816;48.506;9.050;2023-06-19T14:49:10;2.65;;;2.55;;
13487;SDS011;6816;48.506;9.050;2023-06-19T14:52:13;2.75;;;2.55;;
13487;SDS011;6816;48.506;9.050;2023-06-19T14:55:16;2.90;;;2.70;;
13487;SDS011;6816;48.506;9.050;2023-06-19T14:58:16;2.80;;;2.60;;
13487;SDS011;6816;48.506;9.050;2023-06-19T15:01:17;2.90;;;2.70;;
13487;SDS011;6816;48.506;9.050;2023-06-19T15:04:18;2.80;;;2.60;;
13487;SDS011;6816;48.506;9.050;2023-06-19T15:07:18;2.90;;;2.70;;
13487;SDS011;6816;48.506;9.050;2023-06-19T15:10:19;2.90;;;2.70;;
13487;SDS011;6816;48.506;9.050;2023-06-19T15:13:19;2.92;;;2.72;;
13487;SDS011;6816;48.506;9.050;2023-06-19T15:16:20;2.58;;;2.38;;
13487;SDS011;6816;48.506;9.050;2023-06-19T15:19:23;3.13;;;2.90;;
13487;SDS011;6816;48.506;9.050;2023-06-19T15:22:24;3.05;;;2.85;;
13487;SDS011;6816;48.506;9.050;2023-06-19T15:25:24;2.63;;;2.53;;
13487;SDS011;6816;48.506;9.050;2023-06-19T15:28:25;3.45;;;3.13;;
13487;SDS011;6816;48.506;9.050;2023-06-19T15:31:29;3.90;;;3.20;;
13487;SDS011;6816;48.506;9.050;2023-06-19T15:34:30;3.00;;;2.80;;
13487;SDS011;6816;48.506;9.050;2023-06-19T15:37:33;3.00;;;2.80;;
13487;SDS011;6816;48.506;9.050;2023-06-19T15:40:34;3.13;;;2.88;;
13487;SDS011;6816;48.506;9.050;2023-06-19T15:43:34;2.95;;;2.75;;
13487;SDS011;6816;48.506;9.050;2023-06-19T15:46:35;3.67;;;3.38;;
13487;SDS011;6816;48.506;9.050;2023-06-19T15:49:36;3.58;;;3.28;;
13487;SDS011;6816;48.506;9.050;2023-06-19T15:52:37;3.55;;;3.25;;
13487;SDS011;6816;48.506;9.050;2023-06-19T15:55:37;3.42;;;3.13;;
13487;SDS011;6816;48.506;9.050;2023-06-19T15:58:38;2.63;;;2.42;;
13487;SDS011;6816;48.506;9.050;2023-06-19T16:01:39;3.40;;;3.15;;
13487;SDS011;6816;48.506;9.050;2023-06-19T16:04:39;3.08;;;2.88;;
13487;SDS011;6816;48.506;9.050;2023-06-19T16:07:40;3.15;;;2.95;;
13487;SDS011;6816;48.506;9.050;2023-06-19T16:10:41;2.70;;;2.60;;
13487;SDS011;6816;48.506;9.050;2023-06-19T16:13:42;3.30;;;3.10;;
13487;SDS011;6816;48.506;9.050;2023-06-19T16:16:43;3.00;;;2.80;;
13487;SDS011;6816;48.506;9.050;2023-06-19T16:19:44;3.30;;;3.10;;
13487;SDS011;6816;48.506;9.050;2023-06-19T16:22:44;2.85;;;2.65;;
13487;SDS011;6816;48.506;9.050;2023-06-19T16:25:45;2.97;;;2.45;;
13487;SDS011;6816;48.506;9.050;2023-06-19T16:28:45;2.30;;;2.10;;
13487;SDS011;6816;48.506;9.050;2023-06-19T16:31:46;2.00;;;1.90;;
13487;SDS011;6816;48.506;9.050;2023-06-19T16:34:48;2.40;;;2.20;;
13487;SDS011;6816;48.506;9.050;2023-06-19T16:37:49;2.65;;;2.20;;
13487;SDS011;6816;48.506;9.050;2023-06-19T16:40:53;2.75;;;2.30;;
13487;SDS011;6816;48.506;9.050;2023-06-19T16:43:53;3.22;;;2.10;;
13487;SDS011;6816;48.506;9.050;2023-06-19T16:46:54;2.50;;;2.30;;
13487;SDS011;6816;48.506;9.050;2023-06-19T16:49:55;2.15;;;1.98;;
13487;SDS011;6816;48.506;9.050;2023-06-19T16:52:55;2.40;;;2.20;;
13487;SDS011;6816;48.506;9.050;2023-06-19T16:55:56;2.83;;;2.63;;
13487;SDS011;6816;48.506;9.050;2023-06-19T16:58:58;2.97;;;2.25;;
13487;SDS011;6816;48.506;9.050;2023-06-19T17:01:59;2.10;;;2.00;;
13487;SDS011;6816;48.506;9.050;2023-06-19T17:05:00;2.05;;;1.95;;
13487;SDS011;6816;48.506;9.050;2023-06-19T17:08:01;2.00;;;1.90;;
13487;SDS011;6816;48.506;9.050;2023-06-19T17:11:01;3.25;;;2.17;;
13487;SDS011;6816;48.506;9.050;2023-06-19T17:14:02;2.33;;;2.13;;
13487;SDS011;6816;48.506;9.050;2023-06-19T17:17:02;1.88;;;1.77;;
13487;SDS011;6816;48.506;9.050;2023-06-19T17:20:03;3.30;;;2.17;;
13487;SDS011;6816;48.506;9.050;2023-06-19T17:23:05;3.00;;;2.47;;
13487;SDS011;6816;48.506;9.050;2023-06-19T17:26:06;2.40;;;2.20;;
13487;SDS011;6816;48.506;9.050;2023-06-19T17:29:06;2.67;;;2.47;;
13487;SDS011;6816;48.506;9.050;2023-06-19T17:32:07;2.70;;;2.50;;
13487;SDS011;6816;48.506;9.050;2023-06-19T17:35:08;2.40;;;2.30;;
13487;SDS011;6816;48.506;9.050;2023-06-19T17:38:10;2.88;;;2.67;;
13487;SDS011;6816;48.506;9.050;2023-06-19T17:41:11;2.70;;;2.50;;
13487;SDS011;6816;48.506;9.050;2023-06-19T17:44:11;3.08;;;2.78;;
13487;SDS011;6816;48.506;9.050;2023-06-19T17:47:12;2.83;;;2.63;;
13487;SDS011;6816;48.506;9.050;2023-06-19T17:50:13;2.65;;;2.45;;
13487;SDS011;6816;48.506;9.050;2023-06-19T17:53:13;2.80;;;2.60;;
13487;SDS011;6816;48.506;9.050;2023-06-19T17:56:14;3.08;;;2.88;;
13487;SDS011;6816;48.506;9.050;2023-06-19T17:59:16;2.97;;;2.67;;
13487;SDS011;6816;48.506;9.050;2023-06-19T18:02:17;3.10;;;2.90;;
13487;SDS011;6816;48.506;9.050;2023-06-19T18:05:17;2.95;;;2.75;;
13487;SDS011;6816;48.506;9.050;2023-06-19T18:08:18;2.75;;;2.55;;
13487;SDS011;6816;48.506;9.050;2023-06-19T18:11:19;3.08;;;2.88;;
13487;SDS011;6816;48.506;9.050;2023-06-19T18:14:19;3.38;;;3.10;;
13487;SDS011;6816;48.506;9.050;2023-06-19T18:17:24;3.20;;;2.90;;
13487;SDS011;6816;48.506;9.050;2023-06-19T18:20:25;3.10;;;2.90;;
13487;SDS011;6816;48.506;9.050;2023-06-19T18:23:26;3.28;;;3.00;;
13487;SDS011;6816;48.506;9.050;2023-06-19T18:26:26;3.28;;;3.08;;
13487;SDS011;6816;48.506;9.050;2023-06-19T18:29:27;3.10;;;2.90;;
13487;SDS011;6816;48.506;9.050;2023-06-19T18:32:31;3.05;;;2.85;;